createdAt,value
2017-09-06T00:00:43.443Z,78.52
2017-09-06T00:01:43.431Z,77.99
2017-09-06T00:02:43.455Z,78.05
2017-09-06T00:03:43.662Z,78.23
2017-09-06T00:04:43.402Z,77.95
2017-09-06T00:05:43.393Z,78.14
2017-09-06T00:06:43.382Z,78.23
2017-09-06T00:07:43.371Z,77.86
2017-09-06T00:08:43.363Z,78.05
2017-09-06T00:09:43.652Z,77.86
2017-09-06T00:10:43.342Z,77.86
2017-09-06T00:11:43.332Z,78.14
2017-09-06T00:12:43.325Z,77.95
2017-09-06T00:13:43.312Z,78.05
2017-09-06T00:14:43.302Z,77.67
2017-09-06T00:15:43.593Z,77.76
2017-09-06T00:16:43.285Z,77.76
2017-09-06T00:17:43.272Z,77.86
2017-09-06T00:18:43.270Z,78.14
2017-09-06T00:19:43.255Z,78.52
2017-09-06T00:20:43.243Z,78.52
2017-09-06T00:21:43.234Z,77.86
2017-09-06T00:22:43.224Z,77.95
2017-09-06T00:23:43.214Z,78.81
2017-09-06T00:24:43.206Z,79.10
2017-09-06T00:25:43.193Z,78.43
2017-09-06T00:26:43.186Z,78.43
2017-09-06T00:27:43.174Z,79.00
2017-09-06T00:28:43.164Z,78.91
2017-09-06T00:29:43.156Z,78.62
2017-09-06T00:30:43.445Z,78.91
2017-09-06T00:31:43.134Z,78.81
2017-09-06T00:32:43.127Z,78.81
2017-09-06T00:33:43.116Z,78.91
2017-09-06T00:34:43.104Z,78.81
2017-09-06T00:35:43.095Z,78.91
2017-09-06T00:36:43.085Z,79.00
2017-09-06T00:37:43.074Z,79.10
2017-09-06T00:38:43.065Z,78.72
2017-09-06T00:39:43.056Z,78.91
2017-09-06T00:40:43.298Z,78.81
2017-09-06T00:41:43.035Z,79.38
2017-09-06T00:42:43.027Z,78.91
2017-09-06T00:43:43.015Z,78.81
2017-09-06T00:44:43.005Z,79.10
2017-09-06T00:45:42.997Z,79.38
2017-09-06T00:46:43.285Z,79.00
2017-09-06T00:47:42.978Z,79.86
2017-09-06T00:48:42.965Z,78.81
2017-09-06T00:49:42.957Z,79.00
2017-09-06T00:50:42.948Z,78.72
2017-09-06T00:51:42.935Z,79.10
2017-09-06T00:52:42.928Z,79.00
2017-09-06T00:53:42.916Z,79.67
2017-09-06T00:54:42.906Z,78.72
2017-09-06T00:55:42.897Z,79.77
2017-09-06T00:56:42.886Z,79.19
2017-09-06T00:57:42.875Z,79.10
2017-09-06T00:58:42.867Z,79.10
2017-09-06T00:59:42.858Z,79.28
2017-09-06T01:00:42.846Z,79.19
2017-09-06T01:01:43.136Z,79.28
2017-09-06T01:02:42.829Z,79.38
2017-09-06T01:03:42.816Z,79.19
2017-09-06T01:04:42.807Z,79.10
2017-09-06T01:05:42.796Z,79.48
2017-09-06T01:06:42.787Z,79.48
2017-09-06T01:07:43.076Z,79.48
2017-09-06T01:08:42.768Z,79.48
2017-09-06T01:09:42.755Z,79.48
2017-09-06T01:10:42.748Z,78.91
2017-09-06T01:11:42.738Z,78.81
2017-09-06T01:12:42.729Z,78.72
2017-09-06T01:13:43.017Z,78.81
2017-09-06T01:14:42.712Z,79.38
2017-09-06T01:15:42.697Z,79.28
2017-09-06T01:16:42.685Z,79.00
2017-09-06T01:17:42.680Z,79.28
2017-09-06T01:18:42.669Z,79.28
2017-09-06T01:19:42.655Z,79.28
2017-09-06T01:20:42.645Z,79.38
2017-09-06T01:21:42.934Z,79.10
2017-09-06T01:22:42.625Z,79.48
2017-09-06T01:23:42.615Z,79.10
2017-09-06T01:24:42.607Z,79.10
2017-09-06T01:25:42.751Z,79.38
2017-09-06T01:26:42.586Z,79.28
2017-09-06T01:27:42.825Z,79.48
2017-09-06T01:28:42.567Z,79.19
2017-09-06T01:29:42.555Z,79.28
2017-09-06T01:30:42.545Z,79.10
2017-09-06T01:31:42.534Z,79.38
2017-09-06T01:32:42.524Z,79.00
2017-09-06T01:33:42.766Z,79.38
2017-09-06T01:34:42.505Z,79.28
2017-09-06T01:35:42.496Z,78.52
2017-09-06T01:36:42.485Z,79.57
2017-09-06T01:37:42.476Z,79.67
2017-09-06T01:38:42.466Z,79.48
2017-09-06T01:39:42.709Z,79.00
2017-09-06T01:40:42.446Z,79.48
2017-09-06T01:41:42.436Z,79.00
2017-09-06T01:42:42.430Z,79.28
2017-09-06T01:43:42.416Z,79.86
2017-09-06T01:44:42.433Z,79.57
2017-09-06T01:45:42.394Z,78.91
2017-09-06T01:46:42.386Z,79.10
2017-09-06T01:47:42.674Z,78.72
2017-09-06T01:48:42.365Z,79.86
2017-09-06T01:49:42.356Z,79.67
2017-09-06T01:50:42.347Z,79.57
2017-09-06T01:51:42.335Z,78.91
2017-09-06T01:52:42.326Z,78.91
2017-09-06T01:53:42.566Z,79.28
2017-09-06T01:54:42.306Z,78.72
2017-09-06T01:55:42.296Z,79.38
2017-09-06T01:56:42.284Z,79.48
2017-09-06T01:57:42.300Z,79.67
2017-09-06T01:58:42.267Z,79.86
2017-09-06T01:59:42.556Z,79.38
2017-09-06T02:00:42.244Z,79.77
2017-09-06T02:01:42.233Z,79.57
2017-09-06T02:02:42.226Z,79.57
2017-09-06T02:03:42.219Z,79.77
2017-09-06T02:04:42.209Z,79.96
2017-09-06T02:05:42.496Z,79.96
2017-09-06T02:06:42.186Z,79.48
2017-09-06T02:07:42.177Z,79.77
2017-09-06T02:08:42.165Z,80.33
2017-09-06T02:09:42.156Z,79.96
2017-09-06T02:10:42.145Z,79.86
2017-09-06T02:11:42.386Z,80.33
2017-09-06T02:12:42.125Z,80.15
2017-09-06T02:13:42.115Z,80.15
2017-09-06T02:14:42.108Z,80.62
2017-09-06T02:15:42.095Z,81.10
2017-09-06T02:16:42.087Z,81.10
2017-09-06T02:17:42.379Z,81.20
2017-09-06T02:18:42.064Z,81.10
2017-09-06T02:19:42.053Z,81.10
2017-09-06T02:20:42.045Z,81.20
2017-09-06T02:21:42.036Z,81.10
2017-09-06T02:22:42.027Z,80.96
2017-09-06T02:23:42.317Z,81.10
2017-09-06T02:24:42.005Z,81.01
2017-09-06T02:25:41.997Z,80.91
2017-09-06T02:26:41.985Z,80.91
2017-09-06T02:27:41.976Z,80.91
2017-09-06T02:28:41.965Z,81.01
2017-09-06T02:29:41.957Z,81.20
2017-09-06T02:30:41.946Z,80.91
2017-09-06T02:31:42.236Z,81.10
2017-09-06T02:32:42.227Z,81.10
2017-09-06T02:33:41.917Z,81.48
2017-09-06T02:34:41.906Z,81.48
2017-09-06T02:35:41.899Z,81.01
2017-09-06T02:36:41.893Z,80.81
2017-09-06T02:37:41.877Z,81.10
2017-09-06T02:38:42.167Z,81.01
2017-09-06T02:39:41.858Z,80.91
2017-09-06T02:40:41.846Z,80.62
2017-09-06T02:41:41.838Z,80.62
2017-09-06T02:42:41.830Z,80.91
2017-09-06T02:43:41.818Z,80.62
2017-09-06T02:44:42.062Z,80.62
2017-09-06T02:45:41.800Z,80.91
2017-09-06T02:46:41.788Z,80.43
2017-09-06T02:47:41.777Z,80.43
2017-09-06T02:48:41.769Z,80.53
2017-09-06T02:49:41.759Z,80.24
2017-09-06T02:50:42.050Z,80.24
2017-09-06T02:51:41.748Z,80.05
2017-09-06T02:52:41.736Z,80.24
2017-09-06T02:53:41.721Z,80.05
2017-09-06T02:54:41.713Z,80.15
2017-09-06T02:55:41.700Z,80.24
2017-09-06T02:56:41.693Z,80.15
2017-09-06T02:57:41.678Z,80.15
2017-09-06T02:58:41.668Z,80.43
2017-09-06T02:59:41.658Z,80.62
2017-09-06T03:00:41.649Z,80.62
2017-09-06T03:01:41.940Z,80.72
2017-09-06T03:02:41.628Z,80.72
2017-09-06T03:03:41.621Z,80.81
2017-09-06T03:04:41.610Z,80.62
2017-09-06T03:05:41.601Z,80.53
2017-09-06T03:06:41.593Z,80.62
2017-09-06T03:07:41.845Z,80.91
2017-09-06T03:08:41.571Z,80.72
2017-09-06T03:09:41.559Z,80.62
2017-09-06T03:10:41.551Z,80.62
2017-09-06T03:11:41.541Z,80.72
2017-09-06T03:12:41.534Z,80.72
2017-09-06T03:13:41.771Z,80.91
2017-09-06T03:14:41.512Z,80.33
2017-09-06T03:15:41.500Z,80.43
2017-09-06T03:16:41.491Z,80.43
2017-09-06T03:17:41.481Z,80.15
2017-09-06T03:18:41.473Z,80.15
2017-09-06T03:19:41.765Z,80.05
2017-09-06T03:20:41.452Z,80.05
2017-09-06T03:21:41.441Z,80.05
2017-09-06T03:22:41.432Z,80.15
2017-09-06T03:23:41.422Z,80.05
2017-09-06T03:24:41.414Z,80.05
2017-09-06T03:25:41.652Z,80.15
2017-09-06T03:26:41.390Z,80.43
2017-09-06T03:27:41.384Z,80.33
2017-09-06T03:28:41.373Z,80.33
2017-09-06T03:29:41.362Z,80.05
2017-09-06T03:30:41.352Z,79.96
2017-09-06T03:31:41.596Z,80.05
2017-09-06T03:32:41.332Z,80.33
2017-09-06T03:33:41.321Z,80.62
2017-09-06T03:34:41.313Z,80.62
2017-09-06T03:35:41.303Z,79.86
2017-09-06T03:36:41.293Z,79.96
2017-09-06T03:37:41.284Z,79.96
2017-09-06T03:38:41.271Z,79.77
2017-09-06T03:39:41.261Z,80.05
2017-09-06T03:40:41.253Z,79.77
2017-09-06T03:41:41.243Z,79.57
2017-09-06T03:42:41.233Z,80.05
2017-09-06T03:43:41.223Z,79.77
2017-09-06T03:44:41.212Z,80.15
2017-09-06T03:45:41.202Z,80.05
2017-09-06T03:46:41.191Z,79.77
2017-09-06T03:47:41.483Z,80.15
2017-09-06T03:48:41.173Z,79.77
2017-09-06T03:49:41.161Z,80.05
2017-09-06T03:50:41.150Z,80.53
2017-09-06T03:51:41.142Z,80.24
2017-09-06T03:52:41.132Z,80.24
2017-09-06T03:53:41.421Z,80.62
2017-09-06T03:54:41.110Z,80.43
2017-09-06T03:55:41.099Z,79.96
2017-09-06T03:56:41.093Z,80.43
2017-09-06T03:57:41.080Z,80.43
2017-09-06T03:58:41.069Z,80.33
2017-09-06T03:59:41.312Z,80.15
2017-09-06T04:00:41.052Z,80.15
2017-09-06T04:01:41.043Z,81.10
2017-09-06T04:02:41.033Z,81.15
2017-09-06T04:03:41.021Z,81.25
2017-09-06T04:04:41.011Z,81.10
2017-09-06T04:05:41.254Z,81.10
2017-09-06T04:06:40.991Z,81.20
2017-09-06T04:07:40.980Z,80.96
2017-09-06T04:08:40.970Z,81.58
2017-09-06T04:09:40.959Z,81.10
2017-09-06T04:10:40.952Z,81.48
2017-09-06T04:11:41.192Z,81.38
2017-09-06T04:12:40.929Z,80.91
2017-09-06T04:13:40.921Z,81.01
2017-09-06T04:14:40.910Z,80.91
2017-09-06T04:15:40.901Z,80.49
2017-09-06T04:16:40.890Z,80.81
2017-09-06T04:17:41.181Z,80.81
2017-09-06T04:18:40.872Z,80.53
2017-09-06T04:19:40.859Z,80.53
2017-09-06T04:20:40.863Z,81.10
2017-09-06T04:21:40.839Z,80.91
2017-09-06T04:22:40.829Z,81.10
2017-09-06T04:23:41.072Z,81.01
2017-09-06T04:24:40.933Z,81.01
2017-09-06T04:25:40.800Z,80.81
2017-09-06T04:26:40.790Z,81.77
2017-09-06T04:27:40.781Z,81.58
2017-09-06T04:28:40.768Z,81.29
2017-09-06T04:29:41.009Z,81.29
2017-09-06T04:30:40.751Z,81.54
2017-09-06T04:31:40.739Z,81.54
2017-09-06T04:32:40.730Z,81.73
2017-09-06T04:33:40.720Z,82.30
2017-09-06T04:34:40.708Z,82.20
2017-09-06T04:35:40.951Z,81.58
2017-09-06T04:36:40.688Z,81.54
2017-09-06T04:37:40.678Z,81.44
2017-09-06T04:38:40.668Z,81.54
2017-09-06T04:39:40.659Z,81.92
2017-09-06T04:40:40.648Z,82.20
2017-09-06T04:41:40.940Z,82.30
2017-09-06T04:42:40.779Z,82.40
2017-09-06T04:43:40.620Z,82.15
2017-09-06T04:44:40.607Z,81.92
2017-09-06T04:45:40.597Z,82.06
2017-09-06T04:46:40.587Z,82.11
2017-09-06T04:47:40.578Z,81.54
2017-09-06T04:48:40.570Z,81.77
2017-09-06T04:49:40.556Z,81.54
2017-09-06T04:50:40.548Z,81.44
2017-09-06T04:51:40.538Z,81.25
2017-09-06T04:52:40.528Z,81.48
2017-09-06T04:53:40.817Z,81.54
2017-09-06T04:54:40.506Z,81.44
2017-09-06T04:55:40.498Z,81.77
2017-09-06T04:56:40.487Z,81.48
2017-09-06T04:57:40.475Z,81.48
2017-09-06T04:58:40.468Z,81.20
2017-09-06T04:59:40.757Z,81.77
2017-09-06T05:00:40.444Z,81.06
2017-09-06T05:01:40.437Z,81.58
2017-09-06T05:02:40.426Z,81.77
2017-09-06T05:03:40.717Z,81.48
2017-09-06T05:04:40.406Z,81.38
2017-09-06T05:05:40.397Z,81.38
2017-09-06T05:06:40.536Z,81.38
2017-09-06T05:07:40.376Z,81.10
2017-09-06T05:08:40.367Z,81.25
2017-09-06T05:09:40.661Z,81.25
2017-09-06T05:10:40.345Z,81.38
2017-09-06T05:11:40.334Z,81.67
2017-09-06T05:12:40.325Z,81.48
2017-09-06T05:13:40.315Z,81.54
2017-09-06T05:14:40.303Z,81.35
2017-09-06T05:15:40.594Z,81.29
2017-09-06T05:16:40.285Z,81.29
2017-09-06T05:17:40.272Z,81.48
2017-09-06T05:18:40.261Z,81.77
2017-09-06T05:19:40.254Z,81.29
2017-09-06T05:20:40.245Z,81.86
2017-09-06T05:21:40.484Z,82.24
2017-09-06T05:22:40.223Z,81.96
2017-09-06T05:23:40.213Z,81.67
2017-09-06T05:24:40.201Z,81.86
2017-09-06T05:25:40.192Z,81.48
2017-09-06T05:26:40.181Z,82.06
2017-09-06T05:27:40.473Z,82.59
2017-09-06T05:28:40.163Z,82.15
2017-09-06T05:29:40.150Z,82.63
2017-09-06T05:30:40.142Z,82.30
2017-09-06T05:31:40.132Z,82.20
2017-09-06T05:32:40.121Z,82.59
2017-09-06T05:33:40.110Z,82.34
2017-09-06T05:34:40.101Z,82.24
2017-09-06T05:35:40.092Z,82.34
2017-09-06T05:36:40.080Z,82.15
2017-09-06T05:37:40.070Z,82.43
2017-09-06T05:38:40.359Z,82.34
2017-09-06T05:39:40.052Z,82.24
2017-09-06T05:40:40.042Z,82.34
2017-09-06T05:41:40.031Z,81.96
2017-09-06T05:42:40.020Z,81.96
2017-09-06T05:43:40.012Z,82.63
2017-09-06T05:44:40.299Z,82.15
2017-09-06T05:45:39.990Z,82.15
2017-09-06T05:46:39.979Z,82.34
2017-09-06T05:47:39.997Z,82.24
2017-09-06T05:48:39.962Z,82.34
2017-09-06T05:49:39.949Z,82.24
2017-09-06T05:50:40.240Z,82.29
2017-09-06T05:51:39.930Z,82.38
2017-09-06T05:52:39.921Z,82.48
2017-09-06T05:53:39.910Z,82.38
2017-09-06T05:54:39.903Z,82.95
2017-09-06T05:55:39.891Z,82.67
2017-09-06T05:56:40.134Z,82.19
2017-09-06T05:57:39.871Z,82.09
2017-09-06T05:58:39.861Z,82.38
2017-09-06T05:59:39.854Z,82.38
2017-09-06T06:00:39.843Z,82.29
2017-09-06T06:01:39.834Z,82.29
2017-09-06T06:02:40.124Z,81.81
2017-09-06T06:03:39.814Z,81.33
2017-09-06T06:04:39.805Z,81.33
2017-09-06T06:05:39.793Z,81.43
2017-09-06T06:06:39.784Z,81.62
2017-09-06T06:07:39.774Z,80.57
2017-09-06T06:08:40.017Z,80.09
2017-09-06T06:09:39.756Z,79.90
2017-09-06T06:10:39.746Z,80.19
2017-09-06T06:11:39.735Z,80.19
2017-09-06T06:12:39.728Z,80.19
2017-09-06T06:13:39.715Z,80.38
2017-09-06T06:14:39.963Z,79.99
2017-09-06T06:15:39.699Z,80.19
2017-09-06T06:16:39.688Z,80.28
2017-09-06T06:17:39.678Z,79.99
2017-09-06T06:18:39.670Z,79.52
2017-09-06T06:19:39.660Z,79.75
2017-09-06T06:20:39.952Z,80.47
2017-09-06T06:21:39.789Z,81.52
2017-09-06T06:22:39.630Z,81.71
2017-09-06T06:23:39.620Z,82.38
2017-09-06T06:24:39.612Z,82.38
2017-09-06T06:25:39.601Z,81.81
2017-09-06T06:26:39.893Z,82.29
2017-09-06T06:27:39.583Z,81.90
2017-09-06T06:28:39.572Z,82.19
2017-09-06T06:29:39.563Z,82.09
2017-09-06T06:30:39.581Z,82.09
2017-09-06T06:31:39.543Z,81.90
2017-09-06T06:32:39.836Z,81.62
2017-09-06T06:33:39.525Z,81.90
2017-09-06T06:34:39.518Z,81.71
2017-09-06T06:35:39.507Z,81.52
2017-09-06T06:36:39.496Z,81.52
2017-09-06T06:37:39.486Z,80.66
2017-09-06T06:38:39.777Z,79.33
2017-09-06T06:39:39.468Z,78.03
2017-09-06T06:40:39.460Z,78.31
2017-09-06T06:41:39.448Z,77.99
2017-09-06T06:42:39.440Z,78.56
2017-09-06T06:43:39.429Z,78.89
2017-09-06T06:44:39.673Z,80.19
2017-09-06T06:45:39.410Z,80.90
2017-09-06T06:46:39.401Z,81.37
2017-09-06T06:47:39.396Z,81.33
2017-09-06T06:48:39.384Z,82.29
2017-09-06T06:49:39.373Z,81.33
2017-09-06T06:50:39.613Z,80.22
2017-09-06T06:51:39.356Z,80.61
2017-09-06T06:52:39.344Z,80.32
2017-09-06T06:53:39.335Z,80.70
2017-09-06T06:54:39.329Z,80.41
2017-09-06T06:55:39.316Z,80.22
2017-09-06T06:56:39.606Z,81.76
2017-09-06T06:57:39.295Z,82.42
2017-09-06T06:58:39.287Z,82.71
2017-09-06T06:59:39.278Z,81.27
2017-09-06T07:00:39.268Z,82.23
2017-09-06T07:01:39.256Z,82.14
2017-09-06T07:02:39.499Z,82.32
2017-09-06T07:03:39.239Z,82.23
2017-09-06T07:04:39.231Z,82.52
2017-09-06T07:05:39.221Z,82.42
2017-09-06T07:06:39.210Z,81.76
2017-09-06T07:07:39.203Z,82.14
2017-09-06T07:08:39.493Z,81.95
2017-09-06T07:09:39.182Z,82.23
2017-09-06T07:10:39.171Z,82.52
2017-09-06T07:11:39.164Z,81.62
2017-09-06T07:12:39.154Z,81.56
2017-09-06T07:13:39.445Z,81.56
2017-09-06T07:14:39.385Z,82.32
2017-09-06T07:15:39.127Z,82.14
2017-09-06T07:16:39.118Z,82.23
2017-09-06T07:17:39.105Z,82.52
2017-09-06T07:18:39.096Z,82.32
2017-09-06T07:19:39.087Z,82.90
2017-09-06T07:20:39.380Z,82.32
2017-09-06T07:21:39.068Z,81.18
2017-09-06T07:22:39.057Z,81.18
2017-09-06T07:23:39.051Z,80.80
2017-09-06T07:24:39.191Z,80.70
2017-09-06T07:25:39.031Z,80.80
2017-09-06T07:26:39.273Z,80.70
2017-09-06T07:27:39.013Z,80.99
2017-09-06T07:28:39.004Z,81.18
2017-09-06T07:29:38.993Z,80.99
2017-09-06T07:30:38.985Z,80.51
2017-09-06T07:31:38.975Z,80.90
2017-09-06T07:32:39.267Z,80.51
2017-09-06T07:33:38.956Z,81.18
2017-09-06T07:34:38.948Z,81.37
2017-09-06T07:35:38.935Z,81.47
2017-09-06T07:36:38.928Z,81.37
2017-09-06T07:37:38.919Z,81.47
2017-09-06T07:38:39.209Z,81.47
2017-09-06T07:39:38.900Z,81.18
2017-09-06T07:40:38.888Z,80.70
2017-09-06T07:41:38.880Z,79.56
2017-09-06T07:42:38.871Z,79.36
2017-09-06T07:43:38.860Z,79.46
2017-09-06T07:44:39.153Z,79.27
2017-09-06T07:45:38.843Z,80.51
2017-09-06T07:46:38.833Z,79.65
2017-09-06T07:47:38.823Z,79.85
2017-09-06T07:48:38.814Z,82.32
2017-09-06T07:49:38.803Z,83.09
2017-09-06T07:50:39.096Z,82.42
2017-09-06T07:51:38.784Z,82.23
2017-09-06T07:52:38.775Z,82.71
2017-09-06T07:53:38.766Z,82.81
2017-09-06T07:54:38.757Z,82.23
2017-09-06T07:55:38.748Z,82.52
2017-09-06T07:56:39.046Z,82.42
2017-09-06T07:57:38.728Z,82.32
2017-09-06T07:58:38.718Z,82.52
2017-09-06T07:59:38.710Z,82.23
2017-09-06T08:00:38.705Z,82.14
2017-09-06T08:01:38.691Z,82.42
2017-09-06T08:02:38.933Z,82.23
2017-09-06T08:03:38.671Z,82.32
2017-09-06T08:04:38.663Z,81.56
2017-09-06T08:05:38.653Z,81.37
2017-09-06T08:06:38.642Z,81.37
2017-09-06T08:07:38.636Z,81.18
2017-09-06T08:08:38.924Z,80.22
2017-09-06T08:09:38.614Z,78.41
2017-09-06T08:10:38.605Z,79.94
2017-09-06T08:11:38.595Z,84.05
2017-09-06T08:12:38.586Z,84.62
2017-09-06T08:13:38.575Z,85.10
2017-09-06T08:14:38.572Z,84.91
2017-09-06T08:15:38.559Z,84.52
2017-09-06T08:16:38.548Z,85.10
2017-09-06T08:17:38.540Z,84.52
2017-09-06T08:18:38.831Z,84.62
2017-09-06T08:19:38.519Z,84.05
2017-09-06T08:20:38.512Z,83.95
2017-09-06T08:21:38.529Z,84.33
2017-09-06T08:22:38.497Z,82.28
2017-09-06T08:23:38.484Z,82.52
2017-09-06T08:24:38.475Z,80.70
2017-09-06T08:25:38.465Z,80.93
2017-09-06T08:26:38.457Z,82.18
2017-09-06T08:27:38.445Z,82.65
2017-09-06T08:28:38.439Z,83.70
2017-09-06T08:29:38.676Z,83.80
2017-09-06T08:30:38.420Z,84.09
2017-09-06T08:31:38.409Z,82.84
2017-09-06T08:32:38.409Z,82.65
2017-09-06T08:33:38.401Z,82.37
2017-09-06T08:34:38.383Z,79.60
2017-09-06T08:35:38.623Z,75.78
2017-09-06T08:36:38.365Z,75.34
2017-09-06T08:37:38.355Z,75.01
2017-09-06T08:38:38.347Z,76.10
2017-09-06T08:39:38.338Z,77.06
2017-09-06T08:40:38.328Z,75.24
2017-09-06T08:41:38.620Z,76.29
2017-09-06T08:42:38.309Z,76.86
2017-09-06T08:43:38.300Z,76.10
2017-09-06T08:44:38.294Z,75.71
2017-09-06T08:45:38.281Z,75.81
2017-09-06T08:46:38.273Z,76.48
2017-09-06T08:47:38.515Z,76.04
2017-09-06T08:48:38.258Z,76.48
2017-09-06T08:49:38.247Z,76.90
2017-09-06T08:50:38.240Z,77.09
2017-09-06T08:51:38.230Z,74.99
2017-09-06T08:52:38.522Z,74.13
2017-09-06T08:53:38.514Z,73.84
2017-09-06T08:54:38.206Z,72.88
2017-09-06T08:55:38.198Z,72.88
2017-09-06T08:56:38.188Z,72.41
2017-09-06T08:57:38.180Z,72.31
2017-09-06T08:58:38.172Z,74.65
2017-09-06T08:59:38.412Z,75.79
2017-09-06T09:00:38.155Z,75.79
2017-09-06T09:01:38.149Z,75.76
2017-09-06T09:02:38.140Z,75.18
2017-09-06T09:03:38.129Z,74.90
2017-09-06T09:04:38.124Z,74.99
2017-09-06T09:05:38.415Z,76.46
2017-09-06T09:06:38.107Z,76.27
2017-09-06T09:07:38.099Z,75.31
2017-09-06T09:08:38.090Z,75.79
2017-09-06T09:09:38.082Z,76.27
2017-09-06T09:10:38.074Z,75.89
2017-09-06T09:11:38.315Z,74.93
2017-09-06T09:12:38.056Z,75.02
2017-09-06T09:13:38.049Z,75.89
2017-09-06T09:14:38.042Z,75.12
2017-09-06T09:15:38.034Z,75.47
2017-09-06T09:16:38.025Z,74.74
2017-09-06T09:17:38.315Z,73.84
2017-09-06T09:18:38.008Z,73.36
2017-09-06T09:19:37.998Z,75.76
2017-09-06T09:20:37.994Z,75.85
2017-09-06T09:21:37.984Z,75.76
2017-09-06T09:22:37.976Z,75.56
2017-09-06T09:23:38.268Z,75.79
2017-09-06T09:24:37.958Z,76.27
2017-09-06T09:25:37.949Z,75.51
2017-09-06T09:26:37.943Z,75.70
2017-09-06T09:27:37.936Z,75.51
2017-09-06T09:28:37.927Z,74.65
2017-09-06T09:29:38.217Z,74.26
2017-09-06T09:30:37.910Z,73.69
2017-09-06T09:31:37.914Z,75.41
2017-09-06T09:32:37.895Z,74.93
2017-09-06T09:33:37.884Z,74.45
2017-09-06T09:34:37.879Z,75.60
2017-09-06T09:35:37.869Z,75.02
2017-09-06T09:36:38.113Z,74.07
2017-09-06T09:37:37.855Z,72.92
2017-09-06T09:38:37.847Z,74.26
2017-09-06T09:39:37.839Z,73.97
2017-09-06T09:40:37.833Z,75.02
2017-09-06T09:41:37.821Z,75.70
2017-09-06T09:42:38.063Z,75.51
2017-09-06T09:43:37.805Z,73.40
2017-09-06T09:44:37.801Z,73.08
2017-09-06T09:45:37.788Z,72.73
2017-09-06T09:46:37.780Z,72.12
2017-09-06T09:47:37.774Z,73.17
2017-09-06T09:48:38.020Z,72.02
2017-09-06T09:49:37.754Z,71.55
2017-09-06T09:50:37.749Z,72.98
2017-09-06T09:51:37.738Z,72.31
2017-09-06T09:52:37.732Z,72.31
2017-09-06T09:53:37.723Z,71.73
2017-09-06T09:54:38.016Z,71.36
2017-09-06T09:55:37.707Z,72.25
2017-09-06T09:56:37.700Z,73.40
2017-09-06T09:57:37.690Z,72.83
2017-09-06T09:58:37.682Z,73.50
2017-09-06T09:59:37.675Z,73.69
2017-09-06T10:00:37.966Z,72.34
2017-09-06T10:01:37.658Z,72.16
2017-09-06T10:02:37.648Z,72.16
2017-09-06T10:03:37.642Z,71.77
2017-09-06T10:04:37.634Z,73.11
2017-09-06T10:05:37.625Z,72.25
2017-09-06T10:06:37.919Z,71.42
2017-09-06T10:07:37.609Z,72.29
2017-09-06T10:08:37.601Z,73.34
2017-09-06T10:09:37.594Z,70.50
2017-09-06T10:10:37.587Z,70.12
2017-09-06T10:11:37.578Z,70.35
2017-09-06T10:12:37.821Z,69.01
2017-09-06T10:13:37.565Z,66.61
2017-09-06T10:14:37.554Z,67.72
2017-09-06T10:15:37.546Z,66.22
2017-09-06T10:16:37.543Z,67.28
2017-09-06T10:17:37.532Z,66.67
2017-09-06T10:18:37.777Z,66.67
2017-09-06T10:19:37.519Z,66.38
2017-09-06T10:20:37.512Z,66.86
2017-09-06T10:21:37.504Z,67.91
2017-09-06T10:22:37.497Z,68.11
2017-09-06T10:23:37.488Z,68.24
2017-09-06T10:24:37.783Z,67.85
2017-09-06T10:25:37.477Z,69.10
2017-09-06T10:26:37.470Z,67.18
2017-09-06T10:27:37.462Z,66.80
2017-09-06T10:28:37.455Z,67.18
2017-09-06T10:29:37.449Z,67.95
2017-09-06T10:30:37.689Z,66.51
2017-09-06T10:31:37.433Z,67.28
2017-09-06T10:32:37.427Z,68.14
2017-09-06T10:33:37.418Z,66.89
2017-09-06T10:34:37.414Z,66.32
2017-09-06T10:35:37.409Z,67.66
2017-09-06T10:36:37.699Z,66.45
2017-09-06T10:37:37.393Z,66.16
2017-09-06T10:38:37.387Z,65.97
2017-09-06T10:39:37.378Z,63.89
2017-09-06T10:40:37.373Z,65.43
2017-09-06T10:41:37.367Z,65.52
2017-09-06T10:42:37.659Z,63.42
2017-09-06T10:43:37.353Z,64.56
2017-09-06T10:44:37.349Z,64.76
2017-09-06T10:45:37.343Z,65.46
2017-09-06T10:46:37.336Z,63.25
2017-09-06T10:47:37.328Z,64.79
2017-09-06T10:48:37.624Z,63.92
2017-09-06T10:49:37.316Z,63.06
2017-09-06T10:50:37.311Z,63.16
2017-09-06T10:51:37.305Z,63.25
2017-09-06T10:52:37.300Z,66.52
2017-09-06T10:53:37.293Z,62.65
2017-09-06T10:54:37.538Z,65.43
2017-09-06T10:55:37.279Z,67.67
2017-09-06T10:56:37.275Z,66.13
2017-09-06T10:57:37.272Z,63.19
2017-09-06T10:58:37.266Z,62.81
2017-09-06T10:59:37.260Z,60.82
2017-09-06T11:00:37.252Z,61.40
2017-09-06T11:01:37.253Z,60.63
2017-09-06T11:02:37.240Z,60.72
2017-09-06T11:03:37.236Z,60.43
2017-09-06T11:04:37.531Z,60.11
2017-09-06T11:05:37.224Z,60.60
2017-09-06T11:06:37.219Z,62.84
2017-09-06T11:07:37.212Z,63.22
2017-09-06T11:08:37.209Z,62.00
2017-09-06T11:09:37.201Z,62.29
2017-09-06T11:10:37.618Z,61.23
2017-09-06T11:11:37.191Z,62.71
2017-09-06T11:12:37.187Z,59.02
2017-09-06T11:13:37.180Z,57.68
2017-09-06T11:14:37.177Z,60.94
2017-09-06T11:15:37.326Z,60.24
2017-09-06T11:16:37.168Z,61.97
2017-09-06T11:17:37.162Z,60.05
2017-09-06T11:18:37.156Z,60.50
2017-09-06T11:19:37.152Z,61.05
2017-09-06T11:20:37.146Z,63.45
2017-09-06T11:21:37.140Z,62.87
2017-09-06T11:22:37.135Z,62.77
2017-09-06T11:23:37.130Z,63.35
2017-09-06T11:24:37.124Z,62.87
2017-09-06T11:25:37.420Z,62.96
2017-09-06T11:26:37.115Z,63.64
2017-09-06T11:27:37.108Z,64.53
2017-09-06T11:28:37.102Z,64.82
2017-09-06T11:29:37.097Z,63.67
2017-09-06T11:30:37.091Z,62.42
2017-09-06T11:31:37.338Z,63.22
2017-09-06T11:32:37.082Z,61.87
2017-09-06T11:33:37.551Z,63.51
2017-09-06T11:34:37.072Z,63.60
2017-09-06T11:35:37.065Z,61.81
2017-09-06T11:36:37.061Z,60.08
2017-09-06T11:37:37.303Z,59.57
2017-09-06T11:38:37.048Z,60.50
2017-09-06T11:39:37.044Z,60.98
2017-09-06T11:40:37.040Z,62.77
2017-09-06T11:41:37.033Z,64.98
2017-09-06T11:42:37.027Z,65.94
2017-09-06T11:43:37.274Z,64.89
2017-09-06T11:44:37.017Z,64.82
2017-09-06T11:45:37.159Z,64.53
2017-09-06T11:46:37.037Z,63.57
2017-09-06T11:47:37.152Z,63.28
2017-09-06T11:48:36.995Z,63.48
2017-09-06T11:49:36.987Z,62.04
2017-09-06T11:50:36.982Z,62.81
2017-09-06T11:51:36.979Z,63.09
2017-09-06T11:52:36.973Z,63.67
2017-09-06T11:53:36.965Z,63.09
2017-09-06T11:54:36.962Z,65.40
2017-09-06T11:55:37.256Z,65.69
2017-09-06T11:56:36.951Z,63.09
2017-09-06T11:57:37.024Z,62.61
2017-09-06T11:58:36.937Z,62.01
2017-09-06T11:59:36.936Z,63.73
2017-09-06T12:00:36.929Z,64.69
2017-09-06T12:01:37.423Z,65.36
2017-09-06T12:02:36.920Z,67.03
2017-09-06T12:03:36.912Z,67.32
2017-09-06T12:04:36.906Z,67.22
2017-09-06T12:05:37.047Z,67.74
2017-09-06T12:06:37.201Z,66.00
2017-09-06T12:07:37.192Z,66.20
2017-09-06T12:08:36.886Z,66.14
2017-09-06T12:09:37.079Z,65.75
2017-09-06T12:10:36.873Z,63.64
2017-09-06T12:11:36.914Z,64.69
2017-09-06T12:12:36.864Z,63.25
2017-09-06T12:13:36.976Z,64.31
2017-09-06T12:14:36.852Z,65.72
2017-09-06T12:15:37.098Z,65.43
2017-09-06T12:16:36.843Z,64.89
2017-09-06T12:17:36.873Z,64.31
2017-09-06T12:18:36.831Z,63.79
2017-09-06T12:19:36.825Z,64.50
2017-09-06T12:20:36.973Z,64.56
2017-09-06T12:21:37.367Z,64.18
2017-09-06T12:22:36.828Z,64.82
2017-09-06T12:23:36.804Z,65.59
2017-09-06T12:24:36.806Z,64.82
2017-09-06T12:25:36.794Z,65.56
2017-09-06T12:26:36.790Z,65.56
2017-09-06T12:27:37.036Z,66.86
2017-09-06T12:28:36.780Z,68.02
2017-09-06T12:29:36.773Z,67.83
2017-09-06T12:30:36.768Z,68.50
2017-09-06T12:31:36.763Z,69.36
2017-09-06T12:32:36.756Z,68.30
2017-09-06T12:33:37.051Z,68.95
2017-09-06T12:34:36.747Z,69.46
2017-09-06T12:35:36.788Z,70.61
2017-09-06T12:36:36.732Z,70.80
2017-09-06T12:37:36.725Z,70.03
2017-09-06T12:38:36.721Z,69.17
2017-09-06T12:39:36.968Z,69.62
2017-09-06T12:40:36.709Z,69.52
2017-09-06T12:41:36.702Z,69.71
2017-09-06T12:42:36.697Z,70.38
2017-09-06T12:43:36.688Z,71.63
2017-09-06T12:44:36.684Z,70.57
2017-09-06T12:45:36.926Z,68.75
2017-09-06T12:46:36.820Z,68.85
2017-09-06T12:47:36.665Z,69.33
2017-09-06T12:48:36.659Z,68.27
2017-09-06T12:49:36.650Z,68.18
2017-09-06T12:50:36.685Z,68.95
2017-09-06T12:51:36.887Z,68.40
2017-09-06T12:52:36.633Z,69.17